createdAt,value
2024-02-19T00:00:28.501Z,2.47
2024-02-19T00:02:55.161Z,1.88
2024-02-19T00:05:21.666Z,2.63
2024-02-19T00:07:48.558Z,3.67
2024-02-19T00:10:15.561Z,3.25
2024-02-19T00:12:42.455Z,3.85
2024-02-19T00:15:09.451Z,4.97
2024-02-19T00:17:35.976Z,4.53
2024-02-19T00:20:03.858Z,5.28
2024-02-19T00:22:30.527Z,5.20
2024-02-19T00:24:56.974Z,4.40
2024-02-19T00:27:23.460Z,5.10
2024-02-19T00:29:49.890Z,4.67
2024-02-19T00:32:17.156Z,3.88
2024-02-19T00:34:47.350Z,3.63
2024-02-19T00:37:13.850Z,5.95
2024-02-19T00:39:40.426Z,4.15
2024-02-19T00:42:06.970Z,3.90
2024-02-19T00:44:33.390Z,3.60
2024-02-19T00:46:59.787Z,2.95
2024-02-19T00:49:26.330Z,3.55
2024-02-19T00:51:53.698Z,2.80
2024-02-19T00:54:20.129Z,3.67
2024-02-19T00:56:46.537Z,2.70
2024-02-19T00:59:13.292Z,2.60
2024-02-19T01:01:39.821Z,3.20
2024-02-19T01:04:07.145Z,2.35
2024-02-19T01:06:33.690Z,2.77
2024-02-19T01:09:00.131Z,2.00
2024-02-19T01:11:26.645Z,2.42
2024-02-19T01:13:53.087Z,1.70
2024-02-19T01:16:19.620Z,2.10
2024-02-19T01:18:46.688Z,2.17
2024-02-19T01:21:13.269Z,1.98
2024-02-19T01:23:39.703Z,1.83
2024-02-19T01:26:06.098Z,1.38
2024-02-19T01:28:32.539Z,2.13
2024-02-19T01:30:59.072Z,1.90
2024-02-19T01:33:25.651Z,2.25
2024-02-19T01:35:52.122Z,1.98
2024-02-19T01:38:18.913Z,1.95
2024-02-19T01:40:45.337Z,1.70
2024-02-19T01:43:12.996Z,2.10
2024-02-19T01:45:39.986Z,2.03
2024-02-19T01:48:07.134Z,1.98
2024-02-19T01:50:34.942Z,2.13
2024-02-19T01:53:06.454Z,2.80
2024-02-19T01:55:33.992Z,2.27
2024-02-19T01:58:00.754Z,2.33
2024-02-19T02:00:28.848Z,2.00
2024-02-19T02:02:56.018Z,1.65
2024-02-19T02:05:22.477Z,1.58
2024-02-19T02:07:49.402Z,2.00
2024-02-19T02:10:16.008Z,2.28
2024-02-19T02:12:42.588Z,2.58
2024-02-19T02:15:09.250Z,1.77
2024-02-19T02:17:35.698Z,1.48
2024-02-19T02:20:02.335Z,1.10
2024-02-19T02:22:28.874Z,1.83
2024-02-19T02:24:56.339Z,2.00
2024-02-19T02:27:22.851Z,1.40
2024-02-19T02:29:49.276Z,2.00
2024-02-19T02:32:16.298Z,1.93
2024-02-19T02:34:42.769Z,1.83
2024-02-19T02:37:09.305Z,1.42
2024-02-19T02:39:35.837Z,1.88
2024-02-19T02:42:02.740Z,1.98
2024-02-19T02:44:29.162Z,1.10
2024-02-19T02:46:55.589Z,1.55
2024-02-19T02:49:22.148Z,1.40
2024-02-19T02:51:48.677Z,2.03
2024-02-19T02:54:15.125Z,1.50
2024-02-19T02:56:41.585Z,1.50
2024-02-19T02:59:08.073Z,1.92
2024-02-19T03:01:34.621Z,1.33
2024-02-19T03:04:01.202Z,1.67
2024-02-19T03:06:27.776Z,2.00
2024-02-19T03:08:54.671Z,2.90
2024-02-19T03:11:21.927Z,3.10
2024-02-19T03:13:48.465Z,2.38
2024-02-19T03:16:17.603Z,2.13
2024-02-19T03:18:44.634Z,1.70
2024-02-19T03:21:11.884Z,1.87
2024-02-19T03:23:39.376Z,1.70
2024-02-19T03:26:05.930Z,2.00
2024-02-19T03:28:32.346Z,1.95
2024-02-19T03:30:58.953Z,1.58
2024-02-19T03:33:25.471Z,1.57
2024-02-19T03:35:53.907Z,1.50
2024-02-19T03:38:20.557Z,1.73
2024-02-19T03:40:47.048Z,1.80
2024-02-19T03:43:13.555Z,2.15
2024-02-19T03:45:40.030Z,1.37
2024-02-19T03:48:07.130Z,1.90
2024-02-19T03:50:33.646Z,1.90
2024-02-19T03:53:00.127Z,2.15
2024-02-19T03:55:26.621Z,1.83
2024-02-19T03:57:53.224Z,1.23
2024-02-19T04:00:19.967Z,0.85
2024-02-19T04:02:46.414Z,1.65
2024-02-19T04:05:12.846Z,1.52
2024-02-19T04:07:39.369Z,1.75
2024-02-19T04:10:06.952Z,1.70
2024-02-19T04:12:33.404Z,1.40
2024-02-19T04:14:59.864Z,1.42
2024-02-19T04:17:27.650Z,1.13
2024-02-19T04:19:56.846Z,1.48
2024-02-19T04:22:23.361Z,1.40
2024-02-19T04:24:49.823Z,1.67
2024-02-19T04:27:18.925Z,3.80
2024-02-19T04:29:45.408Z,2.33
2024-02-19T04:32:11.872Z,1.85
2024-02-19T04:34:40.738Z,1.70
2024-02-19T04:37:08.508Z,1.77
2024-02-19T04:39:35.091Z,2.45
2024-02-19T04:42:04.909Z,7.88
2024-02-19T04:44:31.375Z,6.60
2024-02-19T04:46:58.092Z,2.60
2024-02-19T04:49:24.596Z,5.82
2024-02-19T04:51:51.127Z,5.03
2024-02-19T04:54:17.560Z,2.92
2024-02-19T04:56:44.006Z,2.25
2024-02-19T04:59:10.427Z,2.13
2024-02-19T05:01:36.969Z,1.70
2024-02-19T05:04:03.688Z,1.70
2024-02-19T05:06:30.612Z,1.75
2024-02-19T05:08:57.209Z,2.55
2024-02-19T05:11:23.718Z,1.70
2024-02-19T05:13:50.283Z,3.92
2024-02-19T05:16:16.797Z,1.73
2024-02-19T05:18:43.362Z,1.85
2024-02-19T05:21:10.360Z,1.50
2024-02-19T05:23:36.961Z,1.07
2024-02-19T05:26:05.475Z,1.45
2024-02-19T05:28:33.878Z,1.33
2024-02-19T05:31:00.345Z,1.60
2024-02-19T05:33:26.758Z,1.30
2024-02-19T05:35:53.212Z,1.20
2024-02-19T05:38:19.658Z,0.93
2024-02-19T05:40:46.087Z,1.15
2024-02-19T05:43:12.627Z,1.25
2024-02-19T05:45:39.237Z,1.30
2024-02-19T05:48:06.034Z,1.30
2024-02-19T05:50:32.893Z,2.60
2024-02-19T05:52:59.368Z,2.72
2024-02-19T05:55:26.407Z,2.47
2024-02-19T05:57:53.581Z,2.95
2024-02-19T06:00:20.119Z,1.53
2024-02-19T06:02:46.632Z,1.52
2024-02-19T06:05:13.174Z,1.60
2024-02-19T06:07:39.714Z,2.08
2024-02-19T06:10:07.837Z,2.33
2024-02-19T06:12:34.335Z,1.90
2024-02-19T06:15:00.794Z,1.95
2024-02-19T06:17:27.359Z,1.42
2024-02-19T06:19:53.919Z,1.88
2024-02-19T06:22:20.423Z,1.13
2024-02-19T06:24:47.802Z,0.97
2024-02-19T06:27:14.310Z,1.88
2024-02-19T06:29:40.852Z,1.70
2024-02-19T06:32:07.545Z,1.90
2024-02-19T06:34:36.060Z,2.70
2024-02-19T06:37:02.849Z,1.80
2024-02-19T06:39:29.312Z,2.80
2024-02-19T06:41:55.761Z,3.13
2024-02-19T06:44:22.194Z,2.38
2024-02-19T06:46:50.058Z,2.35
2024-02-19T06:49:16.592Z,3.47
2024-02-19T06:51:43.068Z,2.25
2024-02-19T06:54:10.280Z,2.53
2024-02-19T06:56:36.703Z,2.70
2024-02-19T06:59:03.223Z,1.75
2024-02-19T07:01:29.845Z,2.03
2024-02-19T07:03:56.439Z,1.80
2024-02-19T07:06:23.036Z,2.53
2024-02-19T07:08:49.574Z,2.53
2024-02-19T07:11:16.155Z,2.25
2024-02-19T07:13:42.614Z,2.00
2024-02-19T07:16:09.139Z,2.65
2024-02-19T07:18:35.804Z,4.35
2024-02-19T07:21:02.336Z,2.75
2024-02-19T07:23:28.753Z,2.00
2024-02-19T07:25:56.989Z,2.00
2024-02-19T07:28:23.852Z,1.55
2024-02-19T07:30:50.381Z,2.25
2024-02-19T07:33:16.942Z,2.25
2024-02-19T07:35:43.438Z,2.13
2024-02-19T07:38:09.866Z,1.97
2024-02-19T07:40:36.602Z,2.35
2024-02-19T07:43:03.781Z,2.17
2024-02-19T07:45:30.232Z,2.67
2024-02-19T07:47:56.705Z,2.10
2024-02-19T07:50:23.175Z,2.03
2024-02-19T07:52:50.207Z,2.22
2024-02-19T07:55:16.846Z,2.17
2024-02-19T07:57:43.396Z,1.95
2024-02-19T08:00:10.614Z,2.83
2024-02-19T08:02:37.039Z,2.20
2024-02-19T08:05:04.787Z,2.47
2024-02-19T08:07:31.540Z,2.28
2024-02-19T08:09:58.022Z,1.90
2024-02-19T08:12:25.121Z,2.65
2024-02-19T08:14:52.082Z,2.33
2024-02-19T08:17:18.682Z,1.90
2024-02-19T08:19:45.233Z,2.10
2024-02-19T08:22:11.774Z,1.85
2024-02-19T08:24:38.555Z,2.03
2024-02-19T08:27:05.220Z,1.93
2024-02-19T08:29:31.932Z,2.45
2024-02-19T08:31:58.925Z,2.35
2024-02-19T08:34:25.749Z,2.78
2024-02-19T08:36:52.624Z,2.17
2024-02-19T08:39:19.195Z,2.10
2024-02-19T08:41:45.669Z,2.58
2024-02-19T08:44:12.135Z,1.98
2024-02-19T08:46:38.564Z,2.42
2024-02-19T08:49:05.176Z,1.88
2024-02-19T08:51:32.139Z,1.93
2024-02-19T08:54:00.217Z,2.05
2024-02-19T08:56:26.985Z,1.75
2024-02-19T08:58:53.445Z,1.80
2024-02-19T09:01:20.428Z,1.90
2024-02-19T09:03:48.625Z,1.80
2024-02-19T09:06:15.551Z,1.50
2024-02-19T09:08:42.381Z,1.90
2024-02-19T09:11:08.896Z,2.42
2024-02-19T09:13:38.254Z,1.40
2024-02-19T09:16:04.976Z,2.13
2024-02-19T09:18:31.677Z,1.70
2024-02-19T09:20:58.199Z,1.80
2024-02-19T09:23:25.772Z,1.85
2024-02-19T09:25:53.214Z,1.85
2024-02-19T09:28:19.838Z,1.80
2024-02-19T09:30:46.429Z,1.67
2024-02-19T09:33:13.059Z,1.75
2024-02-19T09:35:39.524Z,1.83
2024-02-19T09:38:06.693Z,1.60
2024-02-19T09:40:34.183Z,2.20
2024-02-19T09:43:02.176Z,1.90
2024-02-19T09:45:28.786Z,1.90
2024-02-19T09:48:00.339Z,1.70
2024-02-19T09:50:28.317Z,2.15
2024-02-19T09:52:58.812Z,2.17
2024-02-19T09:55:25.441Z,1.70
2024-02-19T09:57:52.329Z,2.17
2024-02-19T10:00:22.814Z,2.00
2024-02-19T10:02:51.130Z,1.90
2024-02-19T10:05:17.678Z,2.60
2024-02-19T10:07:44.322Z,2.78
2024-02-19T10:10:11.188Z,2.42
2024-02-19T10:12:39.603Z,2.88
2024-02-19T10:15:06.398Z,2.50
2024-02-19T10:17:33.172Z,2.60
2024-02-19T10:20:01.427Z,2.28
2024-02-19T10:22:28.051Z,2.33
2024-02-19T10:24:54.539Z,2.70
2024-02-19T10:27:21.656Z,2.47
2024-02-19T10:29:48.079Z,2.10
2024-02-19T10:32:14.537Z,2.00
2024-02-19T10:34:41.552Z,2.10
2024-02-19T10:37:08.073Z,2.20
2024-02-19T10:39:34.514Z,3.72
2024-02-19T10:42:01.258Z,2.07
2024-02-19T10:44:27.771Z,1.58
2024-02-19T10:46:54.557Z,1.42
2024-02-19T10:49:21.281Z,1.80
2024-02-19T10:51:48.040Z,2.13
2024-02-19T10:54:16.873Z,1.50
2024-02-19T10:56:44.590Z,1.75
2024-02-19T10:59:12.105Z,1.60
2024-02-19T11:01:46.280Z,1.30
2024-02-19T11:04:24.900Z,1.40
2024-02-19T11:06:55.622Z,1.80
2024-02-19T11:09:30.969Z,1.35
2024-02-19T11:11:58.946Z,1.40
2024-02-19T11:14:26.891Z,1.10
2024-02-19T11:16:58.310Z,1.45
2024-02-19T11:19:25.029Z,1.70
2024-02-19T11:22:01.392Z,1.45
2024-02-19T11:24:30.655Z,1.70
2024-02-19T11:26:57.150Z,1.00
2024-02-19T11:29:30.679Z,1.55
2024-02-19T11:32:04.238Z,1.20
2024-02-19T11:34:31.247Z,1.27
2024-02-19T11:37:08.709Z,1.38
2024-02-19T11:39:35.613Z,1.88
2024-02-19T11:42:03.084Z,1.58
2024-02-19T11:44:30.873Z,1.40
2024-02-19T11:46:57.712Z,1.13
2024-02-19T11:49:24.449Z,1.83
2024-02-19T11:51:57.686Z,1.65
2024-02-19T11:54:31.851Z,1.52
2024-02-19T11:56:58.745Z,2.13
2024-02-19T11:59:28.139Z,2.20
2024-02-19T12:01:57.316Z,1.30
2024-02-19T12:04:25.986Z,2.05
2024-02-19T12:06:52.629Z,1.85
2024-02-19T12:09:19.651Z,1.27
2024-02-19T12:11:47.690Z,1.88
2024-02-19T12:14:14.477Z,1.70
2024-02-19T12:16:41.007Z,1.30
2024-02-19T12:19:09.125Z,2.13
2024-02-19T12:21:35.640Z,1.53
2024-02-19T12:24:02.091Z,2.10
2024-02-19T12:26:28.548Z,1.50
2024-02-19T12:28:55.043Z,1.55
2024-02-19T12:31:21.569Z,1.83
2024-02-19T12:33:48.410Z,2.37
2024-02-19T12:36:15.203Z,1.50
2024-02-19T12:38:44.863Z,1.40
2024-02-19T12:41:12.099Z,1.30
2024-02-19T12:43:39.404Z,1.67
2024-02-19T12:46:07.770Z,2.13
2024-02-19T12:48:34.688Z,2.22
2024-02-19T12:51:04.755Z,1.40
2024-02-19T12:53:31.191Z,1.50
2024-02-19T12:55:58.198Z,2.00
2024-02-19T12:58:25.048Z,1.83
2024-02-19T13:00:51.943Z,1.55
2024-02-19T13:03:19.133Z,1.13
2024-02-19T13:05:45.804Z,1.45
2024-02-19T13:08:12.460Z,1.77
2024-02-19T13:10:39.622Z,1.67
2024-02-19T13:13:11.825Z,2.13
2024-02-19T13:15:41.671Z,1.55
2024-02-19T13:18:08.894Z,1.35
2024-02-19T13:20:42.229Z,1.58
2024-02-19T13:23:08.910Z,1.20
2024-02-19T13:25:35.414Z,1.20
2024-02-19T13:28:02.109Z,1.70
2024-02-19T13:30:28.549Z,2.25
2024-02-19T13:32:55.016Z,1.60
2024-02-19T13:35:21.751Z,1.40
2024-02-19T13:37:48.723Z,1.77
2024-02-19T13:40:15.411Z,1.27
2024-02-19T13:42:42.274Z,1.70
2024-02-19T13:45:10.562Z,1.40
2024-02-19T13:47:38.881Z,1.47
2024-02-19T13:50:06.394Z,1.13
2024-02-19T13:52:33.048Z,1.52
2024-02-19T13:54:59.713Z,1.30
2024-02-19T13:57:26.678Z,1.48
2024-02-19T13:59:54.370Z,2.77
2024-02-19T14:02:20.938Z,1.83
2024-02-19T14:04:47.946Z,1.88
2024-02-19T14:07:14.590Z,1.63
2024-02-19T14:09:42.755Z,2.20
2024-02-19T14:12:12.277Z,2.13
2024-02-19T14:14:38.746Z,2.45
2024-02-19T14:17:11.080Z,1.67
2024-02-19T14:19:39.389Z,1.60
2024-02-19T14:22:05.878Z,1.95
2024-02-19T14:24:32.340Z,3.27
2024-02-19T14:26:58.822Z,1.63
2024-02-19T14:29:25.293Z,1.70
2024-02-19T14:31:52.341Z,2.47
2024-02-19T14:34:19.259Z,2.40
2024-02-19T14:36:45.887Z,1.40
2024-02-19T14:39:16.467Z,1.50
2024-02-19T14:41:42.899Z,1.75
2024-02-19T14:44:09.312Z,2.65
2024-02-19T14:46:37.459Z,1.45
2024-02-19T14:49:07.699Z,1.60
2024-02-19T14:51:34.209Z,2.05
2024-02-19T14:54:00.706Z,2.33
2024-02-19T14:56:27.196Z,1.30
2024-02-19T14:58:53.664Z,1.38
2024-02-19T15:01:20.278Z,1.33
2024-02-19T15:03:46.874Z,1.30
2024-02-19T15:06:13.445Z,1.73
2024-02-19T15:08:39.906Z,1.48
2024-02-19T15:11:06.433Z,1.70
2024-02-19T15:13:33.020Z,1.40
2024-02-19T15:16:00.107Z,1.50
2024-02-19T15:18:26.951Z,1.63
2024-02-19T15:20:53.647Z,2.25
2024-02-19T15:23:21.324Z,2.35
2024-02-19T15:25:48.217Z,1.90
2024-02-19T15:28:14.852Z,3.00
2024-02-19T15:30:41.315Z,2.05
2024-02-19T15:33:07.894Z,1.77
2024-02-19T15:35:34.675Z,2.17
2024-02-19T15:38:01.165Z,2.07
2024-02-19T15:40:27.688Z,2.67
2024-02-19T15:42:55.647Z,1.40
2024-02-19T15:45:22.816Z,2.38
2024-02-19T15:47:49.325Z,2.92
2024-02-19T15:50:16.873Z,1.83
2024-02-19T15:52:51.724Z,1.50
2024-02-19T15:55:24.490Z,1.15
2024-02-19T15:57:51.120Z,1.65
2024-02-19T16:00:17.900Z,2.22
2024-02-19T16:02:44.439Z,2.63
2024-02-19T16:05:10.990Z,2.10
2024-02-19T16:07:37.585Z,2.00
2024-02-19T16:10:04.393Z,1.60
2024-02-19T16:12:30.950Z,1.40
2024-02-19T16:14:57.451Z,1.20
2024-02-19T16:17:23.868Z,2.33
2024-02-19T16:19:54.259Z,1.83
2024-02-19T16:22:21.310Z,1.45
2024-02-19T16:24:47.770Z,1.73
2024-02-19T16:27:14.219Z,1.37
2024-02-19T16:29:40.635Z,1.73
2024-02-19T16:32:07.155Z,1.60
2024-02-19T16:34:34.350Z,1.60
2024-02-19T16:37:00.994Z,1.50
2024-02-19T16:39:27.463Z,1.80
2024-02-19T16:41:55.414Z,1.75
2024-02-19T16:44:21.879Z,1.60
2024-02-19T16:46:48.360Z,2.60
2024-02-19T16:49:14.998Z,1.23
2024-02-19T16:51:42.844Z,1.50
2024-02-19T16:54:09.791Z,1.90
2024-02-19T16:56:36.229Z,1.60
2024-02-19T16:59:02.713Z,1.90
2024-02-19T17:01:29.996Z,1.55
2024-02-19T17:03:57.689Z,1.10
2024-02-19T17:06:24.801Z,1.63
2024-02-19T17:08:51.493Z,4.63
2024-02-19T17:11:20.712Z,5.90
2024-02-19T17:13:47.242Z,2.38
2024-02-19T17:16:13.797Z,1.97
2024-02-19T17:18:40.924Z,3.25
2024-02-19T17:21:10.219Z,1.70
2024-02-19T17:23:37.444Z,1.50
2024-02-19T17:26:04.797Z,1.40
2024-02-19T17:28:31.331Z,1.50
2024-02-19T17:30:58.196Z,1.67
2024-02-19T17:33:24.982Z,1.55
2024-02-19T17:35:52.437Z,2.85
2024-02-19T17:38:19.004Z,1.80
2024-02-19T17:40:45.658Z,1.80
2024-02-19T17:43:13.074Z,1.80
2024-02-19T17:45:39.766Z,1.70
2024-02-19T17:48:07.855Z,2.17
2024-02-19T17:50:36.967Z,2.25
2024-02-19T17:53:03.719Z,2.20
2024-02-19T17:55:30.252Z,1.80
2024-02-19T17:57:56.727Z,2.08
2024-02-19T18:00:23.266Z,2.25
2024-02-19T18:02:49.678Z,1.95
2024-02-19T18:05:16.126Z,1.80
2024-02-19T18:07:44.092Z,1.13
2024-02-19T18:10:10.787Z,2.97
2024-02-19T18:12:37.758Z,2.38
2024-02-19T18:15:05.761Z,2.53
2024-02-19T18:17:32.267Z,1.27
2024-02-19T18:19:58.948Z,1.35
2024-02-19T18:22:26.863Z,1.38
2024-02-19T18:24:53.670Z,1.27
2024-02-19T18:27:20.355Z,1.27
2024-02-19T18:29:46.840Z,1.40
2024-02-19T18:32:16.245Z,1.30
2024-02-19T18:34:47.530Z,2.55
2024-02-19T18:37:14.538Z,1.55
2024-02-19T18:39:40.952Z,1.35
2024-02-19T18:42:09.528Z,1.50
2024-02-19T18:44:36.051Z,1.48
2024-02-19T18:47:04.097Z,1.65
2024-02-19T18:49:33.001Z,1.20
2024-02-19T18:52:00.191Z,2.03
2024-02-19T18:54:28.215Z,2.10
2024-02-19T18:56:56.081Z,1.65
2024-02-19T18:59:22.516Z,1.50
2024-02-19T19:01:49.060Z,1.75
2024-02-19T19:04:15.581Z,1.38
2024-02-19T19:06:42.153Z,1.37
2024-02-19T19:09:08.668Z,1.50
2024-02-19T19:11:38.020Z,1.73
2024-02-19T19:14:04.553Z,2.13
2024-02-19T19:16:31.446Z,1.40
2024-02-19T19:19:04.124Z,1.37
2024-02-19T19:21:33.297Z,1.20
2024-02-19T19:24:03.609Z,1.17
2024-02-19T19:26:30.470Z,1.30
2024-02-19T19:28:58.705Z,1.10
2024-02-19T19:31:25.210Z,1.37
2024-02-19T19:33:53.546Z,1.55
2024-02-19T19:36:20.856Z,1.45
2024-02-19T19:38:48.557Z,1.42
2024-02-19T19:41:15.130Z,2.00
2024-02-19T19:43:41.587Z,1.50
2024-02-19T19:46:08.316Z,1.48
2024-02-19T19:48:35.199Z,1.00
2024-02-19T19:51:01.772Z,0.98
2024-02-19T19:53:30.161Z,1.27
2024-02-19T19:55:56.722Z,1.30
2024-02-19T19:58:31.394Z,1.88
2024-02-19T20:00:59.870Z,1.50
2024-02-19T20:03:26.842Z,1.40
2024-02-19T20:05:53.658Z,0.95
2024-02-19T20:08:20.259Z,1.63
2024-02-19T20:10:46.805Z,1.23
2024-02-19T20:13:13.448Z,1.58
2024-02-19T20:15:39.906Z,1.40
2024-02-19T20:18:06.647Z,1.40
2024-02-19T20:20:33.192Z,1.33
2024-02-19T20:23:00.059Z,0.98
2024-02-19T20:25:26.604Z,1.70
2024-02-19T20:27:53.241Z,0.90
2024-02-19T20:30:19.792Z,1.20
2024-02-19T20:32:46.440Z,1.30
2024-02-19T20:35:13.209Z,1.20
2024-02-19T20:37:40.501Z,1.40
2024-02-19T20:40:07.614Z,1.50
2024-02-19T20:42:35.726Z,1.30
2024-02-19T20:45:02.275Z,2.20
2024-02-19T20:47:30.058Z,1.23
2024-02-19T20:49:58.853Z,1.20
2024-02-19T20:52:25.947Z,1.30
2024-02-19T20:54:55.546Z,1.10
2024-02-19T20:57:24.614Z,0.90
2024-02-19T20:59:51.087Z,1.35
2024-02-19T21:02:17.632Z,1.05
2024-02-19T21:04:44.297Z,1.08
2024-02-19T21:07:10.993Z,1.40
2024-02-19T21:09:38.600Z,2.40
2024-02-19T21:12:05.213Z,2.30
2024-02-19T21:14:31.666Z,2.00
2024-02-19T21:16:58.102Z,2.17
2024-02-19T21:19:24.915Z,2.30
2024-02-19T21:21:51.698Z,1.70
2024-02-19T21:24:18.543Z,1.10
2024-02-19T21:26:45.039Z,1.60
2024-02-19T21:29:11.485Z,1.90
2024-02-19T21:31:38.353Z,1.42
2024-02-19T21:34:08.518Z,1.33
2024-02-19T21:36:38.557Z,1.33
2024-02-19T21:39:06.760Z,1.77
2024-02-19T21:41:34.258Z,1.35
2024-02-19T21:44:00.739Z,2.05
2024-02-19T21:46:27.814Z,2.40
2024-02-19T21:48:56.302Z,1.77
2024-02-19T21:51:23.423Z,2.08
2024-02-19T21:53:49.966Z,2.30
2024-02-19T21:56:16.523Z,0.88
2024-02-19T21:58:42.981Z,1.00
2024-02-19T22:01:09.631Z,1.30
2024-02-19T22:03:36.182Z,2.92
2024-02-19T22:06:04.926Z,2.42
2024-02-19T22:08:31.458Z,2.20
2024-02-19T22:10:57.949Z,2.00
2024-02-19T22:13:24.530Z,2.50
2024-02-19T22:15:55.099Z,2.28
2024-02-19T22:18:22.610Z,1.80
2024-02-19T22:20:52.252Z,1.10
2024-02-19T22:23:19.817Z,1.33
2024-02-19T22:25:46.444Z,1.20
2024-02-19T22:28:12.975Z,2.10
2024-02-19T22:30:39.416Z,2.50
2024-02-19T22:33:05.899Z,2.03
2024-02-19T22:35:32.670Z,1.73
2024-02-19T22:38:00.818Z,1.85
2024-02-19T22:40:28.384Z,1.90
2024-02-19T22:42:55.051Z,1.85
2024-02-19T22:45:25.330Z,1.80
2024-02-19T22:47:52.156Z,1.63
2024-02-19T22:50:18.620Z,1.60
2024-02-19T22:52:46.797Z,1.83
2024-02-19T22:55:13.520Z,1.92
2024-02-19T22:57:39.988Z,2.33
2024-02-19T23:00:16.845Z,2.77
2024-02-19T23:02:43.342Z,2.90
2024-02-19T23:05:09.756Z,2.25
2024-02-19T23:07:36.226Z,1.48
2024-02-19T23:10:03.005Z,2.10
2024-02-19T23:12:29.451Z,1.90
2024-02-19T23:14:55.895Z,1.50
2024-02-19T23:17:22.340Z,1.88
2024-02-19T23:19:48.894Z,1.55
2024-02-19T23:22:15.411Z,1.30
2024-02-19T23:24:41.936Z,1.30
2024-02-19T23:27:09.861Z,1.08
2024-02-19T23:29:36.269Z,1.50
2024-02-19T23:32:02.731Z,2.05
2024-02-19T23:34:29.246Z,1.50
2024-02-19T23:36:55.929Z,1.20
2024-02-19T23:39:22.478Z,1.10
2024-02-19T23:41:49.042Z,1.10
2024-02-19T23:44:15.552Z,1.15
2024-02-19T23:46:43.916Z,1.35
2024-02-19T23:49:10.629Z,1.10
2024-02-19T23:51:37.111Z,1.95
2024-02-19T23:54:04.317Z,1.17
2024-02-19T23:56:30.917Z,1.02
2024-02-19T23:58:57.381Z,1.80
